Red Oak, North Carolina
Current Conditions -  °F | °C
As of 11:12 PM on Wednesday 26 Nov 2014 (Local Time) from KRWI Reporting Station
Haze Haze  
Wind Chill: 35°   Ceiling: Unl
Heat Index: 35°   Visibility: 3mi
Dew Point: 33°   Wind: 0mph
Humidity: 92%   Direction: NA
Pressure: 30.07"   Gusts: NA
Location:  36.04°N, 77.91°W
Report Text: KRWI 270412Z AUTO 00000KT 3SM BR CLR 02/01 A3007 RMK AO2 T00170006
Loading
Personal Weather Stations






























Interactive Weather Map New forecast layout! Learn more

10-Day Weather Forecast

Advertisements
Track Severe Weather on mobile